createdAt,value
2018-07-30T00:00:02.864Z,101726.39
2018-07-30T00:02:37.125Z,101731.26
2018-07-30T00:05:08.314Z,101730.34
2018-07-30T00:07:37.282Z,101737.12
2018-07-30T00:10:06.386Z,101741.73
2018-07-30T00:12:35.560Z,101752.80
2018-07-30T00:15:04.767Z,101748.95
2018-07-30T00:17:33.577Z,101748.59
2018-07-30T00:20:02.418Z,101755.68
2018-07-30T00:22:31.226Z,101752.80
2018-07-30T00:24:59.976Z,101768.61
2018-07-30T00:27:28.823Z,101779.22
2018-07-30T00:29:57.610Z,101787.62
2018-07-30T00:32:26.398Z,101794.11
2018-07-30T00:34:55.150Z,101805.70
2018-07-30T00:37:23.914Z,101804.41
2018-07-30T00:39:52.693Z,101810.48
2018-07-30T00:42:21.501Z,101812.19
2018-07-30T00:44:50.478Z,101816.87
2018-07-30T00:47:19.273Z,101827.64
2018-07-30T00:49:48.051Z,101830.34
2018-07-30T00:52:16.835Z,101835.38
2018-07-30T00:54:45.599Z,101838.42
2018-07-30T00:57:14.363Z,101835.02
2018-07-30T00:59:43.321Z,101842.75
2018-07-30T01:02:12.100Z,101835.67
2018-07-30T01:04:40.865Z,101825.02
2018-07-30T01:07:09.682Z,101817.65
2018-07-30T01:09:38.496Z,101814.42
2018-07-30T01:12:07.336Z,101817.81
2018-07-30T01:14:36.106Z,101832.75
2018-07-30T01:17:04.918Z,101846.33
2018-07-30T01:19:33.715Z,101842.34
2018-07-30T01:22:02.500Z,101856.45
2018-07-30T01:24:31.332Z,101856.58
2018-07-30T01:27:00.114Z,101859.27
2018-07-30T01:29:28.893Z,101851.90
2018-07-30T01:31:57.668Z,101844.34
2018-07-30T01:34:26.421Z,101830.52
2018-07-30T01:36:55.217Z,101825.08
2018-07-30T01:39:24.021Z,101825.50
2018-07-30T01:41:52.831Z,101825.45
2018-07-30T01:44:21.624Z,101824.38
2018-07-30T01:46:50.430Z,101829.48
2018-07-30T01:49:19.229Z,101829.89
2018-07-30T01:51:48.044Z,101819.40
2018-07-30T01:54:16.825Z,101808.47
2018-07-30T01:56:45.587Z,101811.45
2018-07-30T01:59:14.443Z,101810.45
2018-07-30T02:01:43.241Z,101804.69
2018-07-30T02:04:12.017Z,101801.86
2018-07-30T02:06:40.798Z,101791.28
2018-07-30T02:09:10.853Z,101789.75
2018-07-30T02:11:39.675Z,101788.59
2018-07-30T02:14:08.741Z,101795.27
2018-07-30T02:16:37.569Z,101784.02
2018-07-30T02:19:06.426Z,101779.81
2018-07-30T02:21:35.299Z,101779.75
2018-07-30T02:24:04.140Z,101777.67
2018-07-30T02:26:32.937Z,101779.83
2018-07-30T02:29:01.804Z,101774.98
2018-07-30T02:31:30.658Z,101775.73
2018-07-30T02:33:59.478Z,101772.11
2018-07-30T02:36:28.320Z,101767.14
2018-07-30T02:38:57.098Z,101772.94
2018-07-30T02:41:25.853Z,101768.30
2018-07-30T02:43:54.667Z,101773.04
2018-07-30T02:46:23.457Z,101788.33
2018-07-30T02:48:52.329Z,101792.36
2018-07-30T02:51:21.155Z,101789.54
2018-07-30T02:53:49.933Z,101793.77
2018-07-30T02:56:18.739Z,101792.06
2018-07-30T02:58:47.498Z,101796.45
2018-07-30T03:01:16.273Z,101797.80
2018-07-30T03:03:45.070Z,101790.89
2018-07-30T03:06:13.908Z,101795.41
2018-07-30T03:08:42.685Z,101793.59
2018-07-30T03:11:11.444Z,101794.42
2018-07-30T03:13:40.195Z,101803.42
2018-07-30T03:16:09.000Z,101801.08
2018-07-30T03:18:37.775Z,101799.95
2018-07-30T03:21:06.815Z,101808.16
2018-07-30T03:23:35.569Z,101811.72
2018-07-30T03:26:04.388Z,101816.27
2018-07-30T03:28:33.377Z,101815.63
2018-07-30T03:31:02.235Z,101820.44
2018-07-30T03:33:31.038Z,101822.20
2018-07-30T03:35:59.858Z,101818.86
2018-07-30T03:38:28.669Z,101824.66
2018-07-30T03:40:57.477Z,101820.78
2018-07-30T03:43:26.493Z,101817.22
2018-07-30T03:45:55.245Z,101818.86
2018-07-30T03:48:24.010Z,101808.09
2018-07-30T03:50:52.818Z,101811.56
2018-07-30T03:53:21.605Z,101812.07
2018-07-30T03:55:50.382Z,101808.45
2018-07-30T03:58:19.188Z,101810.25
2018-07-30T04:00:47.970Z,101808.67
2018-07-30T04:03:16.754Z,101812.02
2018-07-30T04:05:45.568Z,101812.08
2018-07-30T04:08:14.369Z,101814.64
2018-07-30T04:10:43.268Z,101817.74
2018-07-30T04:13:12.050Z,101811.44
2018-07-30T04:15:40.846Z,101818.03
2018-07-30T04:18:09.612Z,101814.06
2018-07-30T04:20:38.428Z,101806.86
2018-07-30T04:23:07.239Z,101813.77
2018-07-30T04:25:35.990Z,101808.20
2018-07-30T04:28:04.797Z,101800.61
2018-07-30T04:30:33.562Z,101806.05
2018-07-30T04:33:02.346Z,101810.16
2018-07-30T04:35:31.139Z,101804.87
2018-07-30T04:37:59.956Z,101803.72
2018-07-30T04:40:28.713Z,101807.63
2018-07-30T04:42:57.472Z,101806.17
2018-07-30T04:45:26.243Z,101807.88
2018-07-30T04:47:55.033Z,101809.96
2018-07-30T04:50:23.848Z,101805.28
2018-07-30T04:52:52.738Z,101809.86
2018-07-30T04:55:22.866Z,101809.61
2018-07-30T04:57:51.614Z,101804.16
2018-07-30T05:00:20.405Z,101804.52
2018-07-30T05:02:49.220Z,101798.69
2018-07-30T05:05:17.998Z,101802.02
2018-07-30T05:07:46.749Z,101805.34
2018-07-30T05:10:15.509Z,101807.14
2018-07-30T05:12:44.284Z,101804.16
2018-07-30T05:15:13.051Z,101799.20
2018-07-30T05:17:41.959Z,101803.36
2018-07-30T05:20:10.766Z,101797.33
2018-07-30T05:22:39.583Z,101793.88
2018-07-30T05:25:08.367Z,101791.48
2018-07-30T05:27:37.129Z,101801.95
2018-07-30T05:30:06.557Z,101802.78
2018-07-30T05:32:35.329Z,101798.68
2018-07-30T05:35:04.310Z,101798.80
2018-07-30T05:37:33.113Z,101764.34
2018-07-30T05:40:01.948Z,101794.98
2018-07-30T05:42:30.988Z,101803.59
2018-07-30T05:44:59.785Z,101803.76
2018-07-30T05:47:28.576Z,101799.94
2018-07-30T05:49:57.373Z,101809.73
2018-07-30T05:52:26.162Z,101810.14
2018-07-30T05:54:54.925Z,101769.13
2018-07-30T05:57:23.698Z,101813.41
2018-07-30T05:59:52.472Z,101821.03
2018-07-30T06:02:21.275Z,101814.62
2018-07-30T06:04:50.065Z,101822.18
2018-07-30T06:07:18.841Z,101824.72
2018-07-30T06:09:47.662Z,101826.64
2018-07-30T06:12:16.417Z,101832.24
2018-07-30T06:14:45.185Z,101833.30
2018-07-30T06:17:13.941Z,101829.42
2018-07-30T06:19:42.734Z,101829.97
2018-07-30T06:22:11.563Z,101838.97
2018-07-30T06:24:40.355Z,101849.25
2018-07-30T06:27:09.158Z,101808.67
2018-07-30T06:29:37.958Z,101851.66
2018-07-30T06:32:06.816Z,101849.37
2018-07-30T06:34:35.684Z,101855.80
2018-07-30T06:37:04.528Z,101865.23
2018-07-30T06:39:33.310Z,101856.81
2018-07-30T06:42:02.082Z,101852.77
2018-07-30T06:44:30.862Z,101850.66
2018-07-30T06:46:59.689Z,101846.55
2018-07-30T06:49:28.460Z,101845.09
2018-07-30T06:51:57.305Z,101845.39
2018-07-30T06:54:26.082Z,101842.40
2018-07-30T06:56:54.948Z,101846.91
2018-07-30T06:59:23.777Z,101845.02
2018-07-30T07:01:53.253Z,101847.36
2018-07-30T07:04:22.341Z,101849.31
2018-07-30T07:06:51.149Z,101852.58
2018-07-30T07:09:19.937Z,101852.98
2018-07-30T07:11:48.747Z,101854.91
2018-07-30T07:14:17.531Z,101851.70
2018-07-30T07:16:49.998Z,101858.24
2018-07-30T07:19:18.821Z,101855.98
2018-07-30T07:21:47.752Z,101852.29
2018-07-30T07:24:16.890Z,101857.14
2018-07-30T07:26:45.766Z,101824.38
2018-07-30T07:29:14.587Z,101859.12
2018-07-30T07:31:43.446Z,101858.43
2018-07-30T07:34:12.250Z,101869.66
2018-07-30T07:36:41.106Z,101869.88
2018-07-30T07:39:10.812Z,101871.31
2018-07-30T07:41:39.694Z,101869.77
2018-07-30T07:44:08.566Z,101868.61
2018-07-30T07:46:37.687Z,101875.41
2018-07-30T07:49:06.582Z,101880.25
2018-07-30T07:51:39.211Z,101879.09
2018-07-30T07:54:07.990Z,101875.79
2018-07-30T07:56:36.835Z,101878.59
2018-07-30T07:59:05.746Z,101880.13
2018-07-30T08:01:34.543Z,101880.39
2018-07-30T08:04:03.372Z,101876.70
2018-07-30T08:06:32.255Z,101890.25
2018-07-30T08:09:01.031Z,101885.83
2018-07-30T08:11:29.902Z,101886.12
2018-07-30T08:13:58.747Z,101893.86
2018-07-30T08:16:27.576Z,101884.62
2018-07-30T08:18:56.403Z,101886.71
2018-07-30T08:21:25.223Z,101893.02
2018-07-30T08:23:54.087Z,101888.67
2018-07-30T08:26:22.943Z,101885.19
2018-07-30T08:28:51.929Z,101880.15
2018-07-30T08:31:20.791Z,101889.81
2018-07-30T08:33:49.627Z,101889.73
2018-07-30T08:36:18.634Z,101891.60
2018-07-30T08:38:47.494Z,101885.77
2018-07-30T08:41:16.386Z,101887.91
2018-07-30T08:43:45.238Z,101885.20
2018-07-30T08:46:14.071Z,101889.98
2018-07-30T08:48:42.922Z,101884.19
2018-07-30T08:51:11.714Z,101884.19
2018-07-30T08:53:40.537Z,101887.70
2018-07-30T08:56:09.365Z,101892.45
2018-07-30T08:58:38.169Z,101896.63
2018-07-30T09:01:07.182Z,101897.54
2018-07-30T09:03:36.011Z,101894.09
2018-07-30T09:06:04.862Z,101894.41
2018-07-30T09:08:33.679Z,101898.84
2018-07-30T09:11:02.523Z,101897.35
2018-07-30T09:13:31.301Z,101896.87
2018-07-30T09:16:00.102Z,101891.02
2018-07-30T09:18:28.918Z,101890.08
2018-07-30T09:20:57.745Z,101896.00
2018-07-30T09:23:26.553Z,101910.28
2018-07-30T09:25:55.401Z,101905.55
2018-07-30T09:28:24.256Z,101909.52
2018-07-30T09:30:53.070Z,101910.78
2018-07-30T09:33:21.946Z,101910.41
2018-07-30T09:35:50.794Z,101900.95
2018-07-30T09:38:19.608Z,101903.41
2018-07-30T09:40:48.441Z,101908.14
2018-07-30T09:43:17.242Z,101906.30
2018-07-30T09:45:46.059Z,101905.81
2018-07-30T09:48:14.930Z,101908.17
2018-07-30T09:50:43.769Z,101911.09
2018-07-30T09:53:12.621Z,101905.20
2018-07-30T09:55:41.831Z,101904.86
2018-07-30T09:58:10.637Z,101908.91
2018-07-30T10:00:44.682Z,101907.58
2018-07-30T10:03:13.558Z,101895.79
2018-07-30T10:05:42.346Z,101901.22
2018-07-30T10:08:11.140Z,101894.31
2018-07-30T10:10:39.961Z,101896.17
2018-07-30T10:13:08.757Z,101894.90
2018-07-30T10:15:37.567Z,101898.44
2018-07-30T10:18:06.958Z,101897.60
2018-07-30T10:20:35.734Z,101900.33
2018-07-30T10:23:04.519Z,101901.02
2018-07-30T10:25:33.299Z,101902.19
2018-07-30T10:28:02.082Z,101894.76
2018-07-30T10:30:31.011Z,101899.70
2018-07-30T10:32:59.804Z,101898.50
2018-07-30T10:35:28.574Z,101896.00
2018-07-30T10:37:57.362Z,101899.80
2018-07-30T10:40:26.180Z,101904.87
2018-07-30T10:42:54.945Z,101907.24
2018-07-30T10:45:23.821Z,101910.84
2018-07-30T10:47:52.597Z,101905.28
2018-07-30T10:50:21.475Z,101913.73
2018-07-30T10:52:50.261Z,101910.18
2018-07-30T10:55:19.022Z,101915.78
2018-07-30T10:57:47.821Z,101918.65
2018-07-30T11:00:16.649Z,101919.17
2018-07-30T11:02:45.457Z,101919.84
2018-07-30T11:05:14.270Z,101917.97
2018-07-30T11:07:43.069Z,101916.95
2018-07-30T11:10:11.836Z,101920.87
2018-07-30T11:12:40.606Z,101918.50
2018-07-30T11:15:09.419Z,101919.87
2018-07-30T11:17:38.224Z,101914.27
2018-07-30T11:20:07.055Z,101927.46
2018-07-30T11:22:35.850Z,101926.30
2018-07-30T11:25:04.715Z,101922.06
2018-07-30T11:27:33.557Z,101924.77
2018-07-30T11:30:02.354Z,101935.64
2018-07-30T11:32:31.182Z,101932.08
2018-07-30T11:34:59.956Z,101927.01
2018-07-30T11:37:28.706Z,101934.45
2018-07-30T11:39:57.475Z,101933.09
2018-07-30T11:42:26.291Z,101933.61
2018-07-30T11:44:55.125Z,101929.38
2018-07-30T11:47:23.930Z,101934.45
2018-07-30T11:49:52.726Z,101931.38
2018-07-30T11:52:21.533Z,101931.05
2018-07-30T11:54:50.500Z,101934.10
2018-07-30T11:57:19.325Z,101933.77
2018-07-30T11:59:48.116Z,101938.36
2018-07-30T12:02:17.016Z,101928.89
2018-07-30T12:04:45.886Z,101940.73
2018-07-30T12:07:14.723Z,101933.44
2018-07-30T12:09:43.490Z,101938.02
2018-07-30T12:12:12.341Z,101935.81
2018-07-30T12:14:41.205Z,101931.94
2018-07-30T12:17:09.994Z,101928.39
2018-07-30T12:19:38.797Z,101932.48
2018-07-30T12:22:07.617Z,101931.97
2018-07-30T12:24:36.571Z,101933.32
2018-07-30T12:27:05.429Z,101933.66
2018-07-30T12:29:34.245Z,101938.25
2018-07-30T12:32:03.167Z,101935.40
2018-07-30T12:34:31.929Z,101939.98
2018-07-30T12:37:00.796Z,101932.88
2018-07-30T12:39:29.593Z,101938.29
2018-07-30T12:41:58.475Z,101935.58
2018-07-30T12:44:27.245Z,101943.71
2018-07-30T12:46:56.038Z,101939.13
2018-07-30T12:49:24.817Z,101929.98
2018-07-30T12:51:53.601Z,101933.90
2018-07-30T12:54:22.390Z,101928.16
2018-07-30T12:56:51.152Z,101939.66
2018-07-30T12:59:19.925Z,101944.74
2018-07-30T13:01:48.677Z,101933.23
2018-07-30T13:04:17.522Z,101938.31
2018-07-30T13:06:46.302Z,101936.47
2018-07-30T13:09:15.278Z,101936.95
2018-07-30T13:11:44.093Z,101940.19
2018-07-30T13:14:12.862Z,101944.08
2018-07-30T13:16:41.648Z,101941.37
2018-07-30T13:19:10.442Z,101941.70
2018-07-30T13:21:39.228Z,101939.34
2018-07-30T13:24:08.034Z,101938.66
2018-07-30T13:26:37.447Z,101935.13
2018-07-30T13:29:06.276Z,101941.37
2018-07-30T13:31:35.089Z,101936.62
2018-07-30T13:34:03.877Z,101944.94
2018-07-30T13:36:32.637Z,101940.54
2018-07-30T13:39:01.419Z,101943.58
2018-07-30T13:41:30.215Z,101940.35
2018-07-30T13:43:58.993Z,101936.81
2018-07-30T13:46:28.051Z,101935.80
2018-07-30T13:48:56.856Z,101944.41
2018-07-30T13:51:25.649Z,101915.48
2018-07-30T13:53:54.637Z,101939.00
2018-07-30T13:56:23.452Z,101939.00
2018-07-30T13:58:52.411Z,101936.62
2018-07-30T14:01:21.374Z,101935.45
2018-07-30T14:03:50.211Z,101942.04
2018-07-30T14:06:19.072Z,101936.28
2018-07-30T14:08:48.062Z,101933.76
2018-07-30T14:11:16.860Z,101939.17
2018-07-30T14:13:45.674Z,101930.72
2018-07-30T14:16:14.500Z,101927.48
2018-07-30T14:18:43.286Z,101933.08
2018-07-30T14:21:12.086Z,101935.79
2018-07-30T14:23:40.848Z,101936.62
2018-07-30T14:26:09.641Z,101936.13
2018-07-30T14:28:38.447Z,101933.42
2018-07-30T14:31:07.434Z,101924.08
2018-07-30T14:33:36.228Z,101931.00
2018-07-30T14:36:05.270Z,101925.86
2018-07-30T14:38:34.061Z,101941.48
2018-07-30T14:41:02.846Z,101939.41
2018-07-30T14:43:31.656Z,101941.34
2018-07-30T14:46:00.447Z,101948.27
2018-07-30T14:48:29.285Z,101943.71
2018-07-30T14:50:58.071Z,101942.80
2018-07-30T14:53:26.914Z,101941.34
2018-07-30T14:55:55.756Z,101935.93
2018-07-30T14:58:24.583Z,101931.20
2018-07-30T15:00:53.373Z,101920.86
2018-07-30T15:03:22.165Z,101925.09
2018-07-30T15:05:51.017Z,101928.97
2018-07-30T15:08:19.809Z,101920.17
2018-07-30T15:10:48.610Z,101929.16
2018-07-30T15:13:17.434Z,101921.04
2018-07-30T15:15:46.218Z,101923.08
2018-07-30T15:18:14.979Z,101920.38
2018-07-30T15:20:43.795Z,101922.41
2018-07-30T15:23:12.569Z,101913.45
2018-07-30T15:25:41.387Z,101917.33
2018-07-30T15:28:10.405Z,101911.91
2018-07-30T15:30:39.200Z,101917.52
2018-07-30T15:33:08.000Z,101913.45
2018-07-30T15:35:43.349Z,101941.03
2018-07-30T15:38:12.274Z,101913.27
2018-07-30T15:40:41.164Z,101922.73
2018-07-30T15:43:09.957Z,101928.69
2018-07-30T15:45:38.787Z,101919.36
2018-07-30T15:48:07.701Z,101925.64
2018-07-30T15:50:36.485Z,101928.01
2018-07-30T15:53:05.303Z,101920.03
2018-07-30T15:55:34.085Z,101924.77
2018-07-30T15:58:02.944Z,101935.61
2018-07-30T16:00:31.765Z,101931.88
2018-07-30T16:03:00.589Z,101896.66
2018-07-30T16:05:29.399Z,101932.22
2018-07-30T16:07:58.256Z,101943.39
2018-07-30T16:10:27.097Z,101936.96
2018-07-30T16:12:55.872Z,101939.33
2018-07-30T16:15:25.373Z,101940.53
2018-07-30T16:17:54.315Z,101930.53
2018-07-30T16:20:23.159Z,101924.28
2018-07-30T16:22:51.942Z,101936.27
2018-07-30T16:25:20.792Z,101927.81
2018-07-30T16:27:49.589Z,101928.48
2018-07-30T16:30:18.491Z,101932.21
2018-07-30T16:32:47.319Z,101929.16
2018-07-30T16:35:16.091Z,101935.25
2018-07-30T16:37:44.989Z,101929.66
2018-07-30T16:40:13.827Z,101930.66
2018-07-30T16:42:42.798Z,101934.05
2018-07-30T16:45:11.684Z,101938.29
2018-07-30T16:47:40.524Z,101943.70
2018-07-30T16:50:09.964Z,101947.72
2018-07-30T16:52:38.823Z,101944.33
2018-07-30T16:55:07.968Z,101941.96
2018-07-30T16:57:36.794Z,101941.96
2018-07-30T17:00:08.066Z,101951.56
2018-07-30T17:02:36.893Z,101950.91
2018-07-30T17:05:06.195Z,101956.12
2018-07-30T17:07:34.971Z,101956.45
2018-07-30T17:10:03.857Z,101954.08
2018-07-30T17:12:32.693Z,101956.45
2018-07-30T17:15:01.486Z,101969.28
2018-07-30T17:17:30.453Z,101963.52
2018-07-30T17:19:59.317Z,101961.80
2018-07-30T17:22:28.157Z,101956.39
2018-07-30T17:24:56.951Z,101964.17
2018-07-30T17:27:25.971Z,101967.00
2018-07-30T17:29:54.836Z,101969.20
2018-07-30T17:32:23.883Z,101977.47
2018-07-30T17:34:52.891Z,101980.02
2018-07-30T17:37:21.715Z,101976.59
2018-07-30T17:39:50.638Z,101980.19
2018-07-30T17:42:19.458Z,101981.59
2018-07-30T17:44:48.255Z,101983.42
2018-07-30T17:47:17.054Z,101978.50
2018-07-30T17:49:45.866Z,101977.78
2018-07-30T17:52:14.637Z,101976.52
2018-07-30T17:54:43.509Z,101987.27
2018-07-30T17:57:12.349Z,101994.36
2018-07-30T17:59:41.139Z,101993.66
2018-07-30T18:02:09.913Z,101993.13
2018-07-30T18:04:38.700Z,101999.52
2018-07-30T18:07:07.526Z,102008.17
2018-07-30T18:09:36.328Z,102009.00
2018-07-30T18:12:05.158Z,102011.20
2018-07-30T18:14:33.976Z,102017.06
2018-07-30T18:17:02.730Z,102016.72
2018-07-30T18:19:31.509Z,102020.60
2018-07-30T18:22:00.269Z,102023.59
2018-07-30T18:24:29.098Z,102018.75
2018-07-30T18:26:57.904Z,102021.69
2018-07-30T18:29:26.724Z,102017.58
2018-07-30T18:31:55.493Z,102024.47
2018-07-30T18:34:24.489Z,102025.17
2018-07-30T18:36:53.337Z,102024.82
2018-07-30T18:39:22.148Z,102025.13
2018-07-30T18:41:50.987Z,102026.00
2018-07-30T18:44:19.812Z,102027.80
2018-07-30T18:46:48.611Z,102030.40
2018-07-30T18:49:17.426Z,102031.55
2018-07-30T18:51:46.217Z,102031.52
2018-07-30T18:54:15.001Z,102030.55
2018-07-30T18:56:43.810Z,102034.25
2018-07-30T18:59:12.712Z,102037.99
2018-07-30T19:01:41.535Z,101448.95
2018-07-30T19:04:10.338Z,102033.42
2018-07-30T19:06:39.193Z,102029.64
2018-07-30T19:09:09.217Z,102027.80
2018-07-30T19:11:38.121Z,102027.08
2018-07-30T19:14:07.120Z,102033.70
2018-07-30T19:16:35.920Z,102038.72
2018-07-30T19:19:04.797Z,102038.27
2018-07-30T19:21:33.592Z,102045.70
2018-07-30T19:24:02.458Z,102038.73
2018-07-30T19:26:31.225Z,102042.31
2018-07-30T19:29:00.034Z,102041.50
2018-07-30T19:31:28.805Z,102039.61
2018-07-30T19:33:57.589Z,102041.55
2018-07-30T19:36:27.318Z,102052.42
2018-07-30T19:38:56.106Z,102048.06
2018-07-30T19:41:24.907Z,102052.45
2018-07-30T19:43:53.757Z,102055.67
2018-07-30T19:46:22.641Z,102057.16
2018-07-30T19:48:51.673Z,102059.27
2018-07-30T19:51:20.465Z,102065.45
2018-07-30T19:53:49.838Z,102071.11
2018-07-30T19:56:18.665Z,102071.24
2018-07-30T19:58:47.464Z,102066.23
2018-07-30T20:01:16.265Z,102067.67
2018-07-30T20:03:45.047Z,102064.32
2018-07-30T20:06:13.943Z,102066.53
2018-07-30T20:08:42.749Z,102063.48
2018-07-30T20:11:11.677Z,102061.27
2018-07-30T20:13:40.506Z,102066.53
2018-07-30T20:16:09.293Z,102054.88
2018-07-30T20:18:38.163Z,102058.44
2018-07-30T20:21:06.977Z,102064.48
2018-07-30T20:23:35.785Z,102067.84
2018-07-30T20:26:04.605Z,102067.15
2018-07-30T20:28:33.394Z,102069.16
2018-07-30T20:31:02.224Z,102061.19
2018-07-30T20:33:31.163Z,102068.37
2018-07-30T20:36:00.016Z,102072.81
2018-07-30T20:38:28.885Z,102069.77
2018-07-30T20:40:57.750Z,102071.25
2018-07-30T20:43:26.521Z,102062.97
2018-07-30T20:45:55.441Z,102069.20
2018-07-30T20:48:24.657Z,102066.94
2018-07-30T20:50:53.585Z,101959.23
2018-07-30T20:53:22.474Z,102068.37
2018-07-30T20:55:51.491Z,102068.24
2018-07-30T20:58:20.279Z,102064.97
2018-07-30T21:00:49.116Z,102060.27
2018-07-30T21:03:18.130Z,102065.59
2018-07-30T21:05:46.954Z,102064.41
2018-07-30T21:08:16.370Z,102063.23
2018-07-30T21:10:46.236Z,102067.15
2018-07-30T21:13:16.410Z,102069.45
2018-07-30T21:15:45.518Z,102066.24
2018-07-30T21:18:14.319Z,102070.94
2018-07-30T21:20:43.136Z,102079.16
2018-07-30T21:23:11.977Z,102085.61
2018-07-30T21:25:40.925Z,102087.09
2018-07-30T21:30:37.441Z,102096.00
2018-07-30T21:33:06.450Z,102096.44
2018-07-30T21:35:35.277Z,102103.35
2018-07-30T21:38:05.191Z,102104.48
2018-07-30T21:40:34.038Z,102106.84
2018-07-30T21:43:02.889Z,102109.75
2018-07-30T21:45:31.725Z,102106.97
2018-07-30T21:48:00.736Z,102106.56
2018-07-30T21:50:29.637Z,102104.24
2018-07-30T21:52:58.421Z,102113.80
2018-07-30T21:55:27.265Z,102119.33
2018-07-30T21:57:56.072Z,102122.67
2018-07-30T22:00:27.163Z,102123.97
2018-07-30T22:02:57.186Z,102120.98
2018-07-30T22:05:26.053Z,102116.46
2018-07-30T22:07:54.860Z,102118.14
2018-07-30T22:10:24.727Z,102107.42
2018-07-30T22:12:55.351Z,102110.50
2018-07-30T22:15:24.711Z,102107.37
2018-07-30T22:17:53.596Z,102112.81
2018-07-30T22:20:22.388Z,102107.29
2018-07-30T22:22:51.252Z,102106.94
2018-07-30T22:25:20.114Z,102099.84
2018-07-30T22:27:48.969Z,102099.98
2018-07-30T22:30:17.800Z,102100.84
2018-07-30T22:32:46.617Z,102098.06
2018-07-30T22:35:15.425Z,102097.66
2018-07-30T22:37:44.237Z,102104.39
2018-07-30T22:40:13.030Z,102105.45
2018-07-30T22:42:41.888Z,102106.45
2018-07-30T22:45:10.669Z,102101.34
2018-07-30T22:47:39.495Z,102101.45
2018-07-30T22:50:08.325Z,102093.25
2018-07-30T22:52:37.161Z,102093.12
2018-07-30T22:55:06.282Z,102093.42
2018-07-30T22:57:35.050Z,102094.37
2018-07-30T23:00:04.198Z,102087.34
2018-07-30T23:02:33.053Z,102089.81
2018-07-30T23:05:01.870Z,102078.25
2018-07-30T23:07:30.912Z,102085.94
2018-07-30T23:09:59.717Z,102091.09
2018-07-30T23:12:28.526Z,102092.09
2018-07-30T23:14:57.350Z,102090.09
2018-07-30T23:17:26.195Z,102091.50
2018-07-30T23:19:54.988Z,102081.50
2018-07-30T23:22:23.858Z,102091.27
2018-07-30T23:24:52.649Z,102090.69
2018-07-30T23:27:21.465Z,102089.92
2018-07-30T23:29:50.285Z,102079.80
2018-07-30T23:32:19.277Z,102080.95
2018-07-30T23:34:48.102Z,102081.37
2018-07-30T23:37:17.068Z,102081.77
2018-07-30T23:39:45.785Z,102079.02
2018-07-30T23:42:14.632Z,102073.58
2018-07-30T23:44:43.468Z,102076.44
2018-07-30T23:47:12.291Z,102071.69
2018-07-30T23:49:41.256Z,102070.34
2018-07-30T23:52:10.043Z,102068.29
2018-07-30T23:54:38.875Z,102070.05
2018-07-30T23:57:07.724Z,102062.14
2018-07-30T23:59:36.500Z,102064.89
